Time;durP1;ratioP1;P1;durP2;ratioP2;P2;SDS_P1;SDS_P2;PMS_P1;PMS_P2;Temp;Humidity;BMP_temperature;BMP_pressure;BME280_temperature;BME280_humidity;BME280_pressure;Samples;Min_cycle;Max_cycle;Signal;HPM_P1;HPM_P2
2022/10/30 05:32:09;;;;;;;3.53;0.68;;;16.40;79.60;;;;;;5151799;23;20046;-81
2022/10/30 05:34:37;;;;;;;2.38;0.75;;;16.40;79.50;;;;;;4994280;28;20039;-80
2022/10/30 05:37:03;;;;;;;3.67;1.02;;;16.40;79.80;;;;;;4995272;28;20018;-82
2022/10/30 05:39:28;;;;;;;4.20;0.60;;;16.30;79.90;;;;;;4977703;28;20033;-81
2022/10/30 05:41:54;;;;;;;2.88;1.00;;;16.30;79.80;;;;;;4980488;28;20045;-81
2022/10/30 05:44:20;;;;;;;3.67;0.63;;;16.30;79.70;;;;;;4999484;28;20128;-81
2022/10/30 05:46:45;;;;;;;2.10;0.90;;;16.30;79.80;;;;;;4998785;28;20117;-81
2022/10/30 05:49:11;;;;;;;5.65;0.60;;;16.30;79.90;;;;;;4999368;28;20028;-81
2022/10/30 05:51:36;;;;;;;2.08;0.68;;;16.20;79.80;;;;;;4999535;28;20018;-81
2022/10/30 05:54:02;;;;;;;4.40;0.75;;;16.20;79.90;;;;;;4994249;28;20489;-81
2022/10/30 05:56:28;;;;;;;4.45;0.82;;;16.20;80.10;;;;;;4998425;28;20382;-81
2022/10/30 05:58:53;;;;;;;2.05;0.60;;;16.20;80.10;;;;;;4982030;28;20090;-82
2022/10/30 06:01:19;;;;;;;5.28;0.75;;;16.20;79.90;;;;;;4997766;28;20029;-82
2022/10/30 06:03:45;;;;;;;3.00;0.70;;;16.20;79.90;;;;;;4998281;28;20425;-83
2022/10/30 06:06:10;;;;;;;3.63;1.08;;;16.20;79.60;;;;;;4981524;28;20554;-83
2022/10/30 06:08:56;;;;;;;1.63;0.75;;;16.10;80.20;;;;;;4982159;28;20520;-82
2022/10/30 06:11:21;;;;;;;2.47;0.75;;;16.20;80.30;;;;;;4999287;28;20146;-82
2022/10/30 06:13:47;;;;;;;5.15;1.17;;;16.10;80.50;;;;;;4998895;28;20054;-82
2022/10/30 06:16:13;;;;;;;5.22;0.77;;;16.00;80.30;;;;;;4981940;28;20034;-82
2022/10/30 06:18:39;;;;;;;3.13;0.80;;;16.00;80.50;;;;;;4998490;28;20026;-82
2022/10/30 06:21:04;;;;;;;2.70;0.70;;;16.10;80.30;;;;;;4999444;28;20038;-82
2022/10/30 06:23:30;;;;;;;1.58;0.80;;;16.10;80.50;;;;;;4998349;28;20065;-82
2022/10/30 06:26:00;;;;;;;0.73;0.50;;;16.10;80.40;;;;;;4982146;28;20158;-82
2022/10/30 06:28:26;;;;;;;;;;;16.10;80.40;;;;;;4981950;28;20026;-82
2022/10/30 06:30:53;;;;;;;2.15;0.68;;;16.00;80.40;;;;;;4998354;28;19917;-81
2022/10/30 06:33:19;;;;;;;3.20;0.90;;;16.00;80.10;;;;;;4998676;28;20018;-80
2022/10/30 06:35:48;;;;;;;3.92;0.70;;;16.00;80.50;;;;;;5015340;28;20281;-81
2022/10/30 06:38:15;;;;;;;7.53;0.80;;;16.00;80.70;;;;;;4999437;28;20053;-81
2022/10/30 06:40:41;;;;;;;1.73;0.70;;;15.90;80.70;;;;;;4998628;28;20031;-82
2022/10/30 06:43:06;;;;;;;3.05;0.88;;;15.90;80.70;;;;;;4998671;28;20032;-81
2022/10/30 06:45:33;;;;;;;3.90;0.90;;;15.80;80.60;;;;;;4998659;28;20092;-84
2022/10/30 06:48:00;;;;;;;1.20;0.60;;;15.70;81.20;;;;;;4982102;28;20034;-80
2022/10/30 06:50:26;;;;;;;1.35;0.70;;;15.60;82.20;;;;;;4961251;28;20465;-79
2022/10/30 06:52:54;;;;;;;4.43;1.33;;;15.70;82.00;;;;;;4994092;28;20053;-78
2022/10/30 06:55:20;;;;;;;6.90;1.00;;;15.80;81.60;;;;;;4986214;28;20045;-80
2022/10/30 06:57:51;;;;;;;4.13;1.25;;;15.90;81.50;;;;;;4979154;28;20035;-79
2022/10/30 07:00:21;;;;;;;5.43;0.80;;;15.90;81.10;;;;;;4981614;28;20117;-79
2022/10/30 07:03:00;;;;;;;3.33;0.85;;;16.00;81.10;;;;;;4975887;28;20408;-79
2022/10/30 07:05:38;;;;;;;1.92;0.77;;;15.80;80.90;;;;;;4976975;28;20416;-84
2022/10/30 07:08:04;;;;;;;1.55;0.60;;;15.90;80.90;;;;;;4996552;28;20026;-83
2022/10/30 07:10:29;;;;;;;5.20;1.00;;;15.90;80.80;;;;;;4986493;28;20428;-81
2022/10/30 07:12:57;;;;;;;1.63;0.80;;;15.90;80.70;;;;;;4966946;28;20038;-79
2022/10/30 07:15:23;;;;;;;2.38;0.60;;;15.90;80.30;;;;;;4994631;28;20023;-80
2022/10/30 07:18:01;;;;;;;3.55;0.93;;;15.90;80.40;;;;;;4990906;28;20093;-79
2022/10/30 07:20:29;;;;;;;3.10;0.80;;;15.80;80.30;;;;;;4980666;28;20038;-81
2022/10/30 07:22:55;;;;;;;5.20;0.70;;;15.80;80.50;;;;;;4979401;28;20489;-79
2022/10/30 07:25:21;;;;;;;4.03;0.70;;;15.70;80.10;;;;;;4984749;28;20030;-82
2022/10/30 07:27:49;;;;;;;2.25;1.00;;;15.60;81.30;;;;;;4995546;28;20146;-81
2022/10/30 07:30:16;;;;;;;3.35;0.80;;;15.50;81.20;;;;;;4982143;28;20058;-83
2022/10/30 07:32:43;;;;;;;3.13;1.00;;;15.40;81.80;;;;;;4997694;28;20049;-85
2022/10/30 07:35:11;;;;;;;1.42;0.60;;;15.50;81.40;;;;;;4997414;28;20033;-83
2022/10/30 07:37:37;;;;;;;2.78;0.82;;;15.60;81.50;;;;;;4997232;28;20023;-85
2022/10/30 07:40:06;;;;;;;4.65;0.93;;;15.70;81.30;;;;;;4980572;28;20026;-87
2022/10/30 07:42:35;;;;;;;2.08;0.80;;;15.80;81.10;;;;;;4979898;28;20057;-85
2022/10/30 07:45:01;;;;;;;1.75;0.57;;;15.80;80.90;;;;;;4997259;28;20026;-87
2022/10/30 07:47:29;;;;;;;2.50;0.80;;;15.80;80.80;;;;;;4980501;28;20089;-89
2022/10/30 07:49:54;;;;;;;4.22;1.17;;;15.70;80.60;;;;;;4979369;28;20370;-88
2022/10/30 07:52:20;;;;;;;1.25;0.75;;;15.60;80.60;;;;;;4997654;28;20029;-89
2022/10/30 07:54:46;;;;;;;2.83;1.13;;;15.60;81.50;;;;;;4978390;28;20443;-93
2022/10/30 07:57:11;;;;;;;5.25;0.77;;;15.60;81.40;;;;;;4997441;28;20030;-91
2022/10/30 07:59:37;;;;;;;2.60;0.82;;;15.70;81.50;;;;;;4980238;28;20022;-86
2022/10/30 08:02:04;;;;;;;3.78;0.73;;;15.80;81.00;;;;;;4981492;28;21130;-87
2022/10/30 08:04:29;;;;;;;1.75;0.65;;;15.80;81.00;;;;;;4959226;28;20026;-86
2022/10/30 08:06:55;;;;;;;1.95;0.57;;;15.80;80.90;;;;;;4967446;28;20764;-89
2022/10/30 08:09:20;;;;;;;3.80;0.70;;;15.80;81.10;;;;;;4969852;28;20608;-82
2022/10/30 08:11:46;;;;;;;3.15;0.70;;;15.80;80.90;;;;;;4969840;28;20723;-85
2022/10/30 08:14:12;;;;;;;3.95;0.88;;;15.80;80.80;;;;;;4984840;28;20057;-83
2022/10/30 08:16:37;;;;;;;3.28;0.90;;;15.80;80.90;;;;;;4984915;28;20088;-85
2022/10/30 08:19:03;;;;;;;1.38;0.75;;;15.80;81.00;;;;;;4965565;28;20031;-87
2022/10/30 08:21:29;;;;;;;8.82;1.10;;;15.80;81.20;;;;;;4974519;28;20034;-90
2022/10/30 08:23:54;;;;;;;3.33;0.88;;;15.80;80.40;;;;;;4990568;28;20046;-89
2022/10/30 08:26:20;;;;;;;3.17;1.13;;;15.80;80.60;;;;;;4973445;28;20034;-89
2022/10/30 08:28:46;;;;;;;4.13;0.70;;;15.80;81.00;;;;;;4990584;28;20026;-88
2022/10/30 08:31:11;;;;;;;1.85;1.00;;;15.80;81.00;;;;;;4969956;28;20162;-88
2022/10/30 08:33:37;;;;;;;1.85;0.90;;;15.80;81.20;;;;;;4965896;28;20050;-88
2022/10/30 08:36:03;;;;;;;4.90;1.08;;;15.80;81.00;;;;;;4970588;28;20090;-89
2022/10/30 08:38:28;;;;;;;2.53;1.08;;;15.90;80.90;;;;;;4951889;28;20056;-89
2022/10/30 08:40:54;;;;;;;2.22;0.80;;;15.90;81.00;;;;;;4959640;28;20030;-90
2022/10/30 08:43:20;;;;;;;2.05;0.65;;;15.80;81.00;;;;;;4958734;28;20049;-88
2022/10/30 08:45:46;;;;;;;4.15;0.73;;;15.90;80.90;;;;;;4962523;28;20085;-91
2022/10/30 08:48:15;;;;;;;3.30;0.80;;;15.90;80.90;;;;;;4954455;28;20034;-91
2022/10/30 08:50:41;;;;;;;2.70;0.80;;;15.90;80.90;;;;;;4959372;28;20037;-91
2022/10/30 08:53:09;;;;;;;2.55;1.10;;;16.00;80.80;;;;;;4959208;28;20081;-91
2022/10/30 08:55:35;;;;;;;6.50;1.02;;;16.10;80.70;;;;;;4964695;28;20031;-90
2022/10/30 08:58:01;;;;;;;1.73;0.90;;;16.10;80.70;;;;;;4973095;28;20105;-89
2022/10/30 09:00:27;;;;;;;2.53;1.13;;;16.20;80.60;;;;;;4974402;28;20038;-89
2022/10/30 09:02:53;;;;;;;2.75;1.30;;;16.30;80.70;;;;;;4974094;28;20034;-90
2022/10/30 09:05:19;;;;;;;2.00;0.90;;;16.30;80.50;;;;;;4973660;28;20035;-90
2022/10/30 09:07:45;;;;;;;4.30;1.10;;;16.30;80.30;;;;;;4975726;28;20089;-92
2022/10/30 09:10:11;;;;;;;2.08;0.90;;;16.30;80.50;;;;;;4956419;28;20812;-88
2022/10/30 09:12:37;;;;;;;2.00;0.70;;;16.30;80.30;;;;;;4974171;28;20018;-89
2022/10/30 09:15:03;;;;;;;4.03;1.35;;;16.30;80.40;;;;;;4954911;28;20031;-93
2022/10/30 09:17:29;;;;;;;2.72;1.00;;;16.30;80.10;;;;;;4965354;28;20034;-88
2022/10/30 09:19:54;;;;;;;3.55;0.90;;;16.20;80.40;;;;;;4981128;28;20470;-85
2022/10/30 09:22:20;;;;;;;3.13;0.68;;;16.20;80.60;;;;;;4978503;28;20174;-92
2022/10/30 09:24:45;;;;;;;2.55;0.80;;;16.20;80.80;;;;;;4966019;28;20157;-90
2022/10/30 09:27:11;;;;;;;4.82;0.90;;;16.10;80.40;;;;;;4961341;28;20026;-92
2022/10/30 09:29:37;;;;;;;6.45;0.88;;;16.20;80.70;;;;;;4962215;28;20072;-90
2022/10/30 09:32:07;;;;;;;1.17;0.70;;;16.10;80.80;;;;;;4974713;28;20134;-91
2022/10/30 09:34:33;;;;;;;;;;;16.20;80.70;;;;;;4983618;28;20105;-90
2022/10/30 09:36:58;;;;;;;2.33;0.65;;;16.20;80.70;;;;;;4937116;28;20000;-91
2022/10/30 09:39:24;;;;;;;1.40;0.73;;;16.30;80.70;;;;;;4981117;28;20461;-91
2022/10/30 09:42:11;;;;;;;4.53;0.98;;;16.30;80.80;;;;;;4982494;28;20055;-92
2022/10/30 09:44:48;;;;;;;2.55;0.77;;;16.40;80.50;;;;;;4982823;28;20027;-92
2022/10/30 09:47:26;;;;;;;1.00;0.60;;;16.50;80.60;;;;;;4981646;28;20040;-91
2022/10/30 09:50:10;;;;;;;1.92;0.80;;;16.60;80.60;;;;;;4980900;28;20022;-93
2022/10/30 09:52:42;;;;;;;1.98;0.90;;;16.60;80.50;;;;;;4975663;28;20042;-92
2022/10/30 09:55:32;;;;;;;3.65;0.70;;;16.70;80.00;;;;;;4956943;28;20037;-89
2022/10/30 09:58:05;;;;;;;;;;;16.60;80.50;;;;;;4970775;28;20044;-89
2022/10/30 10:00:43;;;;;;;2.45;0.82;;;16.60;80.70;;;;;;4982772;28;19929;-90
2022/10/30 10:03:40;;;;;;;2.83;0.77;;;16.70;80.20;;;;;;4948149;28;20058;-93
2022/10/30 10:06:14;;;;;;;1.55;0.60;;;16.80;80.30;;;;;;4971170;28;20038;-90
2022/10/30 10:08:45;;;;;;;2.78;0.70;;;16.80;80.40;;;;;;4986119;28;20469;-90
2022/10/30 10:11:35;;;;;;;3.38;0.80;;;16.80;79.70;;;;;;4979799;28;20109;-90
2022/10/30 10:14:14;;;;;;;2.63;0.50;;;16.90;80.10;;;;;;4948885;28;20042;-91
2022/10/30 10:16:42;;;;;;;3.03;1.00;;;16.80;79.80;;;;;;4979641;28;20045;-90
2022/10/30 10:19:10;;;;;;;2.00;0.60;;;16.80;80.40;;;;;;4978874;28;20034;-93
2022/10/30 10:21:45;;;;;;;3.20;0.75;;;16.90;80.10;;;;;;4978847;28;20032;-85
2022/10/30 10:24:21;;;;;;;1.92;0.80;;;16.90;80.10;;;;;;4970917;28;20061;-83
2022/10/30 10:26:53;;;;;;;2.35;0.70;;;16.90;80.00;;;;;;4972473;28;20026;-85
2022/10/30 10:29:50;;;;;;;4.07;0.80;;;17.10;79.80;;;;;;4997837;28;20032;-89
2022/10/30 10:32:46;;;;;;;3.47;0.70;;;17.10;79.50;;;;;;4965506;28;20137;-87
2022/10/30 10:35:33;;;;;;;1.67;0.60;;;17.20;79.60;;;;;;4994360;28;20027;-83
2022/10/30 10:38:24;;;;;;;4.00;0.75;;;17.10;79.50;;;;;;4978506;28;20580;-84
2022/10/30 10:41:22;;;;;;;1.58;0.73;;;17.20;79.60;;;;;;4995149;28;20026;-82
2022/10/30 10:44:25;;;;;;;1.10;0.60;;;17.20;79.60;;;;;;4977428;28;20032;-87
2022/10/30 10:47:09;;;;;;;1.00;0.55;;;17.20;79.40;;;;;;4993476;28;20033;-89
2022/10/30 10:49:51;;;;;;;1.73;0.63;;;17.20;79.50;;;;;;4979438;28;20497;-85
2022/10/30 10:52:33;;;;;;;1.65;0.55;;;17.30;79.80;;;;;;4995522;28;20041;-81
2022/10/30 10:55:05;;;;;;;4.20;0.80;;;17.40;79.30;;;;;;4984516;28;20018;-87
2022/10/30 10:57:39;;;;;;;3.08;0.60;;;17.40;79.40;;;;;;4980221;28;20034;-87
2022/10/30 11:00:12;;;;;;;6.90;1.00;;;17.40;79.40;;;;;;4985036;28;20146;-92
2022/10/30 11:03:06;;;;;;;3.53;0.80;;;17.50;79.60;;;;;;5009606;28;20027;-95
2022/10/30 11:05:43;;;;;;;1.67;0.65;;;17.50;79.40;;;;;;4983713;28;20049;-90
2022/10/30 11:08:11;;;;;;;2.67;1.15;;;17.60;78.80;;;;;;4975664;28;20064;-87
2022/10/30 11:10:37;;;;;;;1.90;0.52;;;17.70;78.80;;;;;;4972084;28;20018;-91
2022/10/30 11:13:03;;;;;;;2.35;0.65;;;17.80;79.10;;;;;;4977732;28;20117;-85
2022/10/30 11:15:40;;;;;;;3.15;0.70;;;17.90;78.60;;;;;;4991582;28;20026;-88
2022/10/30 11:18:08;;;;;;;3.08;0.73;;;18.00;78.70;;;;;;4972469;28;20229;-88
2022/10/30 11:20:49;;;;;;;2.75;0.85;;;17.90;77.90;;;;;;4994017;28;20036;-86
2022/10/30 11:23:37;;;;;;;1.27;0.43;;;17.90;78.10;;;;;;4988586;28;20031;-86
2022/10/30 11:26:04;;;;;;;3.72;0.70;;;17.80;78.10;;;;;;4983318;28;20745;-86
2022/10/30 11:28:47;;;;;;;2.58;0.63;;;17.80;78.10;;;;;;4990426;28;20023;-85
2022/10/30 11:31:46;;;;;;;1.33;0.50;;;17.70;78.50;;;;;;4989785;28;20060;-89
2022/10/30 11:34:17;;;;;;;3.78;0.95;;;17.80;78.70;;;;;;4937240;28;20049;-91
2022/10/30 11:36:51;;;;;;;2.35;0.80;;;17.80;78.30;;;;;;4969568;28;20038;-89
2022/10/30 11:39:28;;;;;;;2.05;0.80;;;17.80;78.30;;;;;;4963684;28;20035;-85
2022/10/30 11:42:01;;;;;;;3.22;0.70;;;17.80;78.40;;;;;;4986271;28;20031;-89
2022/10/30 11:44:37;;;;;;;2.05;0.65;;;17.90;78.40;;;;;;4975344;28;20113;-81
2022/10/30 11:47:04;;;;;;;3.00;0.80;;;17.80;78.20;;;;;;4967156;28;20069;-86
2022/10/30 11:49:47;;;;;;;0.85;0.52;;;17.70;78.50;;;;;;4973808;28;20106;-88
2022/10/30 11:52:16;;;;;;;2.97;0.90;;;17.70;78.60;;;;;;4973580;28;20085;-92
2022/10/30 11:54:47;;;;;;;3.35;2.20;;;17.70;78.90;;;;;;4966248;28;20401;-91
2022/10/30 11:57:41;;;;;;;4.20;1.17;;;17.70;79.00;;;;;;4971471;28;20030;-83
2022/10/30 12:00:17;;;;;;;4.13;2.13;;;17.70;79.20;;;;;;4982719;28;20018;-86
2022/10/30 12:02:45;;;;;;;2.60;1.08;;;17.70;79.20;;;;;;4971887;28;20425;-85
2022/10/30 12:05:43;;;;;;;3.55;0.95;;;17.70;79.30;;;;;;4980446;28;20023;-80
2022/10/30 12:08:08;;;;;;;3.20;1.20;;;17.70;79.30;;;;;;4947364;28;20047;-83
2022/10/30 12:10:54;;;;;;;31.85;16.10;;;17.70;79.30;;;;;;4990873;28;20424;-85
2022/10/30 12:13:22;;;;;;;3.63;1.30;;;17.80;79.00;;;;;;4974571;28;20035;-87
2022/10/30 12:16:22;;;;;;;2.63;1.30;;;17.60;78.70;;;;;;4995318;28;20049;-87
2022/10/30 12:19:02;;;;;;;2.75;1.38;;;17.70;79.20;;;;;;4993512;28;20042;-83
2022/10/30 12:21:34;;;;;;;3.00;1.50;;;17.90;78.90;;;;;;4989091;28;20046;-79
2022/10/30 12:24:05;;;;;;;3.35;1.55;;;18.20;78.60;;;;;;4957832;28;20046;-80
2022/10/30 12:26:34;;;;;;;2.55;1.38;;;18.30;78.40;;;;;;4970452;28;20471;-84
2022/10/30 12:29:05;;;;;;;4.70;1.73;;;18.50;78.20;;;;;;4959736;28;20045;-82
2022/10/30 12:31:39;;;;;;;5.07;1.80;;;18.50;77.90;;;;;;4982097;28;20034;-83
2022/10/30 12:34:08;;;;;;;2.72;1.90;;;18.50;77.40;;;;;;4998388;28;20041;-86
2022/10/30 12:36:40;;;;;;;5.00;1.50;;;18.50;77.60;;;;;;4996326;28;20033;-84
2022/10/30 12:39:18;;;;;;;1.88;1.50;;;18.50;77.30;;;;;;4996140;28;20038;-88
2022/10/30 12:42:06;;;;;;;3.75;1.52;;;18.50;77.30;;;;;;4964173;28;20061;-84
2022/10/30 12:44:36;;;;;;;2.63;1.45;;;18.60;77.40;;;;;;4996442;28;20150;-81
2022/10/30 12:47:28;;;;;;;4.43;1.50;;;18.60;77.00;;;;;;4991974;28;20540;-76
2022/10/30 12:49:58;;;;;;;3.80;1.58;;;18.60;77.40;;;;;;4969652;28;20038;-82
2022/10/30 12:52:46;;;;;;;2.97;1.38;;;18.60;77.50;;;;;;4974065;28;20033;-87
2022/10/30 12:55:30;;;;;;;3.90;1.30;;;18.60;77.60;;;;;;4987919;28;20050;-84
2022/10/30 12:58:22;;;;;;;5.00;1.60;;;18.70;77.40;;;;;;4992358;28;20026;-83
2022/10/30 13:00:53;;;;;;;3.00;1.40;;;18.70;77.10;;;;;;4987988;28;20037;-80
2022/10/30 13:03:37;;;;;;;3.10;1.48;;;18.50;77.20;;;;;;4989161;28;20030;-82
2022/10/30 13:06:15;;;;;;;5.15;1.70;;;18.30;77.20;;;;;;4987758;28;20038;-83
2022/10/30 13:08:53;;;;;;;4.85;1.52;;;18.30;76.90;;;;;;4969278;28;20046;-80
2022/10/30 13:11:42;;;;;;;3.55;1.77;;;18.30;77.20;;;;;;4988978;28;20057;-85
2022/10/30 13:14:32;;;;;;;3.60;1.52;;;18.30;77.10;;;;;;4964162;28;20042;-86
2022/10/30 13:16:57;;;;;;;5.40;1.65;;;18.30;77.30;;;;;;4947278;28;20044;-84
2022/10/30 13:19:23;;;;;;;9.05;1.80;;;18.30;77.50;;;;;;4972409;28;20631;-85
2022/10/30 13:22:06;;;;;;;2.70;1.33;;;18.30;77.10;;;;;;4968108;28;20485;-85
2022/10/30 13:25:04;;;;;;;6.97;1.60;;;18.40;77.30;;;;;;4967557;28;20121;-86
2022/10/30 13:27:43;;;;;;;2.15;1.20;;;18.50;76.60;;;;;;4965866;28;20158;-84
2022/10/30 13:30:09;;;;;;;4.13;1.50;;;18.50;76.20;;;;;;4986955;28;20508;-85
2022/10/30 13:32:38;;;;;;;3.35;1.42;;;18.40;76.80;;;;;;4968525;28;20118;-87
2022/10/30 13:35:34;;;;;;;2.50;1.40;;;18.40;77.10;;;;;;4991847;28;20022;-92
2022/10/30 13:38:00;;;;;;;5.40;2.30;;;18.50;77.40;;;;;;4993994;28;20101;-84
2022/10/30 13:40:38;;;;;;;3.35;2.03;;;18.60;77.20;;;;;;4993157;28;20038;-84
2022/10/30 13:43:22;;;;;;;4.60;1.40;;;18.60;76.90;;;;;;4994911;28;20500;-83
2022/10/30 13:46:00;;;;;;;3.78;1.67;;;18.70;76.80;;;;;;4975800;28;20065;-81
2022/10/30 13:49:03;;;;;;;3.90;1.65;;;18.80;76.80;;;;;;4992923;28;20030;-84
2022/10/30 13:51:43;;;;;;;4.43;1.73;;;18.80;76.30;;;;;;4987663;28;20062;-84
2022/10/30 13:54:21;;;;;;;3.60;1.27;;;18.80;76.30;;;;;;4992881;28;20045;-83
2022/10/30 13:56:47;;;;;;;3.38;1.30;;;18.80;76.20;;;;;;4976123;28;20033;-86
2022/10/30 13:59:19;;;;;;;3.25;0.95;;;18.80;76.00;;;;;;4974831;28;20030;-85
2022/10/30 14:01:53;;;;;;;3.42;1.38;;;18.70;75.90;;;;;;4992757;28;20030;-84
2022/10/30 14:04:54;;;;;;;1.50;1.10;;;18.70;76.20;;;;;;4996967;28;20026;-84
2022/10/30 14:07:34;;;;;;;2.22;1.35;;;18.60;76.20;;;;;;4994239;28;20467;-85
2022/10/30 14:10:23;;;;;;;2.13;1.00;;;18.60;76.60;;;;;;4996277;28;20018;-84
2022/10/30 14:13:06;;;;;;;1.80;1.00;;;18.70;76.60;;;;;;4996300;28;20033;-84
2022/10/30 14:15:39;;;;;;;3.28;1.17;;;18.80;76.60;;;;;;4978741;28;20034;-84
2022/10/30 14:18:11;;;;;;;6.18;1.30;;;18.70;76.50;;;;;;4961933;28;20031;-84
2022/10/30 14:20:37;;;;;;;3.22;1.40;;;18.70;76.40;;;;;;4969141;28;20022;-83
2022/10/30 14:23:19;;;;;;;3.28;1.60;;;18.60;76.40;;;;;;4998764;28;20113;-83
2022/10/30 14:26:04;;;;;;;2.65;1.58;;;18.70;76.50;;;;;;4980240;28;20094;-84
2022/10/30 14:28:35;;;;;;;2.95;1.00;;;18.80;76.60;;;;;;4992733;28;20023;-83
2022/10/30 14:31:09;;;;;;;3.65;0.98;;;18.80;76.40;;;;;;4995838;28;20042;-83
2022/10/30 14:33:54;;;;;;;4.72;1.30;;;18.80;75.80;;;;;;4994874;28;20033;-85
2022/10/30 14:36:25;;;;;;;5.63;1.38;;;18.50;75.10;;;;;;4991860;28;20026;-84
2022/10/30 14:38:52;;;;;;;5.40;1.42;;;18.50;75.50;;;;;;4992107;28;20493;-84
2022/10/30 14:41:53;;;;;;;4.10;1.10;;;18.40;75.90;;;;;;4992638;28;20022;-85
2022/10/30 14:44:39;;;;;;;5.43;1.45;;;18.30;76.10;;;;;;4946009;28;20034;-83
2022/10/30 14:47:43;;;;;;;4.72;1.25;;;18.30;76.30;;;;;;4995385;28;20117;-84
2022/10/30 14:50:26;;;;;;;3.17;1.20;;;18.30;76.70;;;;;;4983298;28;20041;-84
2022/10/30 14:53:25;;;;;;;2.45;1.02;;;18.40;76.50;;;;;;4997324;28;20014;-84
2022/10/30 14:56:29;;;;;;;1.20;1.08;;;18.60;76.30;;;;;;4979856;28;20026;-83
2022/10/30 14:59:12;;;;;;;1.30;0.85;;;18.70;75.90;;;;;;4959347;28;20096;-83
2022/10/30 15:01:46;;;;;;;3.58;0.55;;;18.70;75.60;;;;;;4995938;28;20022;-82
2022/10/30 15:04:39;;;;;;;3.17;0.77;;;18.60;74.60;;;;;;4996511;28;20054;-82
2022/10/30 15:07:36;;;;;;;2.90;1.00;;;18.50;74.10;;;;;;4995307;28;20034;-82
2022/10/30 15:10:31;;;;;;;4.50;1.00;;;18.40;73.70;;;;;;4975388;28;20501;-82
2022/10/30 15:13:21;;;;;;;5.25;0.90;;;18.40;73.30;;;;;;4975994;28;20536;-83
2022/10/30 15:15:58;;;;;;;2.30;0.65;;;18.40;73.40;;;;;;4976901;28;20034;-82
2022/10/30 15:18:24;;;;;;;2.95;0.70;;;18.50;73.50;;;;;;4993552;28;20034;-82
2022/10/30 15:20:52;;;;;;;6.75;1.65;;;18.60;73.10;;;;;;4994800;28;20068;-82
2022/10/30 15:23:28;;;;;;;3.13;0.85;;;18.70;73.30;;;;;;4995334;28;20063;-82
2022/10/30 15:25:59;;;;;;;6.43;0.90;;;18.70;72.20;;;;;;4992505;28;20117;-83
2022/10/30 15:28:33;;;;;;;2.95;0.70;;;18.70;72.50;;;;;;4996382;28;20080;-84
2022/10/30 15:31:00;;;;;;;6.97;0.88;;;18.70;72.40;;;;;;4991010;28;20077;-83
2022/10/30 15:33:26;;;;;;;1.75;0.80;;;18.50;71.70;;;;;;4979490;28;20022;-84
2022/10/30 15:35:52;;;;;;;7.28;1.05;;;18.50;71.40;;;;;;4978042;28;20028;-83
2022/10/30 15:38:17;;;;;;;3.97;0.80;;;18.40;70.80;;;;;;4987915;28;20484;-83
2022/10/30 15:40:43;;;;;;;3.70;0.95;;;18.30;70.50;;;;;;4989722;28;20030;-83
2022/10/30 15:43:13;;;;;;;3.03;0.85;;;18.30;70.10;;;;;;4988944;28;20022;-82
2022/10/30 15:45:44;;;;;;;7.88;1.30;;;18.30;70.50;;;;;;4982913;28;21394;-82
2022/10/30 15:48:23;;;;;;;3.60;0.82;;;18.30;70.20;;;;;;4990698;28;20023;-82
2022/10/30 15:51:02;;;;;;;5.82;1.05;;;18.30;70.20;;;;;;4976359;28;20026;-82
2022/10/30 15:53:39;;;;;;;1.23;0.50;;;18.20;70.20;;;;;;4976701;28;20027;-83
2022/10/30 15:56:11;;;;;;;4.55;0.95;;;18.20;70.40;;;;;;4990349;28;20027;-82
2022/10/30 15:58:37;;;;;;;1.50;0.70;;;18.20;70.80;;;;;;4986771;28;20106;-84
2022/10/30 16:01:03;;;;;;;2.85;0.95;;;18.10;71.00;;;;;;4984294;28;20059;-83
2022/10/30 16:03:29;;;;;;;5.05;0.95;;;18.00;71.00;;;;;;4987093;28;20030;-83
2022/10/30 16:06:25;;;;;;;5.90;1.17;;;17.90;71.10;;;;;;4983271;28;20520;-83
2022/10/30 16:08:51;;;;;;;1.95;0.60;;;17.90;71.40;;;;;;4975644;28;20048;-83
2022/10/30 16:11:17;;;;;;;4.22;1.08;;;17.80;71.70;;;;;;4985265;28;20038;-82
2022/10/30 16:13:43;;;;;;;4.50;0.90;;;17.80;71.70;;;;;;4973043;28;20027;-83
2022/10/30 16:16:20;;;;;;;5.50;1.10;;;17.80;71.90;;;;;;4987755;28;20034;-82
2022/10/30 16:18:46;;;;;;;2.33;0.70;;;17.80;72.00;;;;;;4974488;28;20578;-83
2022/10/30 16:21:17;;;;;;;2.88;0.98;;;17.80;72.00;;;;;;4989112;28;20034;-82
2022/10/30 16:23:56;;;;;;;6.10;1.05;;;17.70;72.40;;;;;;4975203;28;20031;-82
2022/10/30 16:26:36;;;;;;;6.25;1.20;;;17.80;72.50;;;;;;4974248;28;20046;-82
2022/10/30 16:29:26;;;;;;;2.75;1.02;;;17.70;72.50;;;;;;4984981;28;20041;-83
2022/10/30 16:31:52;;;;;;;6.07;1.10;;;17.70;72.80;;;;;;4988471;28;20039;-83
2022/10/30 16:34:24;;;;;;;3.38;1.15;;;17.70;73.00;;;;;;4971436;28;20366;-82
2022/10/30 16:36:50;;;;;;;3.30;0.95;;;17.60;73.30;;;;;;4975631;28;20473;-83
2022/10/30 16:39:18;;;;;;;4.25;1.02;;;17.60;73.40;;;;;;4986562;28;20034;-83
2022/10/30 16:41:47;;;;;;;5.15;1.13;;;17.50;73.60;;;;;;4987671;28;20886;-83
2022/10/30 16:44:34;;;;;;;3.80;0.83;;;17.50;74.00;;;;;;4974118;28;20636;-83
2022/10/30 16:47:17;;;;;;;6.43;1.38;;;17.50;74.30;;;;;;4989701;28;20038;-82
2022/10/30 16:49:48;;;;;;;7.18;1.38;;;17.40;74.20;;;;;;4971539;28;20057;-82
2022/10/30 16:52:15;;;;;;;8.20;1.25;;;17.40;74.60;;;;;;4986305;28;20022;-83
2022/10/30 16:54:57;;;;;;;7.03;1.55;;;17.30;74.70;;;;;;4976566;28;20125;-83
2022/10/30 16:57:29;;;;;;;5.18;1.25;;;17.30;74.80;;;;;;4991825;28;20463;-83
2022/10/30 16:59:56;;;;;;;5.97;1.63;;;17.20;75.00;;;;;;4989288;28;20033;-83
2022/10/30 17:02:27;;;;;;;6.25;1.30;;;17.30;75.00;;;;;;4990698;28;20029;-83
2022/10/30 17:04:56;;;;;;;5.03;1.15;;;17.20;75.20;;;;;;4990145;28;20066;-83
2022/10/30 17:07:25;;;;;;;6.07;1.13;;;17.20;75.40;;;;;;4985159;28;20117;-83
2022/10/30 17:09:52;;;;;;;5.22;1.15;;;17.20;75.60;;;;;;4988697;28;20037;-83
2022/10/30 17:12:26;;;;;;;8.52;1.77;;;17.10;75.80;;;;;;4988022;28;20448;-83
2022/10/30 17:15:05;;;;;;;5.88;1.40;;;17.10;75.80;;;;;;4990340;28;20041;-82
2022/10/30 17:17:37;;;;;;;6.18;2.17;;;17.00;76.00;;;;;;4970793;28;20117;-83
2022/10/30 17:20:05;;;;;;;12.23;4.75;;;17.00;76.10;;;;;;4992282;28;20043;-82
2022/10/30 17:22:32;;;;;;;10.40;5.78;;;17.00;76.10;;;;;;4987625;28;20023;-83
2022/10/30 17:24:59;;;;;;;14.55;6.70;;;16.90;76.40;;;;;;4974369;28;20026;-82
2022/10/30 17:27:48;;;;;;;10.13;4.57;;;16.90;76.40;;;;;;4988436;28;20023;-82
2022/10/30 17:30:41;;;;;;;7.90;3.77;;;16.90;76.80;;;;;;4989612;28;20073;-82
2022/10/30 17:33:24;;;;;;;5.53;2.60;;;16.80;76.90;;;;;;4984618;28;20049;-83
2022/10/30 17:35:52;;;;;;;10.80;3.67;;;16.80;77.20;;;;;;4991954;28;20033;-82
2022/10/30 17:38:18;;;;;;;15.13;10.60;;;16.80;77.10;;;;;;4996582;28;20034;-83
2022/10/30 17:40:44;;;;;;;23.48;19.50;;;16.80;77.20;;;;;;4991243;28;20030;-82
2022/10/30 17:43:14;;;;;;;17.77;14.55;;;16.80;77.20;;;;;;4977148;28;20518;-82
2022/10/30 17:45:40;;;;;;;11.20;6.53;;;16.80;77.30;;;;;;4988737;28;20030;-82
2022/10/30 17:48:15;;;;;;;11.02;3.60;;;16.80;77.40;;;;;;4994610;28;20069;-82
2022/10/30 17:50:41;;;;;;;7.90;2.10;;;16.70;77.50;;;;;;4991929;28;20027;-82
2022/10/30 17:53:17;;;;;;;8.95;2.50;;;16.70;77.40;;;;;;4979691;28;20059;-82
2022/10/30 17:55:46;;;;;;;6.28;1.67;;;16.70;77.60;;;;;;4995013;28;20023;-82
2022/10/30 17:58:30;;;;;;;8.52;2.90;;;16.70;77.60;;;;;;4997379;28;20034;-82
2022/10/30 18:00:57;;;;;;;9.77;3.78;;;16.60;77.70;;;;;;4988146;28;20035;-82
2022/10/30 18:03:23;;;;;;;11.40;3.60;;;16.60;77.80;;;;;;4991539;28;20026;-83
2022/10/30 18:05:50;;;;;;;7.65;2.50;;;16.60;77.80;;;;;;4994469;28;20515;-82
2022/10/30 18:08:16;;;;;;;9.20;2.35;;;16.50;77.90;;;;;;4988677;28;20037;-82
2022/10/30 18:10:42;;;;;;;10.02;3.58;;;16.50;78.20;;;;;;4994178;28;20019;-82
2022/10/30 18:13:12;;;;;;;7.38;4.13;;;16.50;78.10;;;;;;4970090;28;20127;-82
2022/10/30 18:15:42;;;;;;;14.60;5.63;;;16.40;78.20;;;;;;4990098;28;20376;-82
2022/10/30 18:18:08;;;;;;;11.98;6.40;;;16.40;78.50;;;;;;4995124;28;20038;-83
2022/10/30 18:20:34;;;;;;;15.98;10.85;;;16.40;78.40;;;;;;4994018;28;20081;-82
2022/10/30 18:23:00;;;;;;;9.40;7.43;;;16.30;78.70;;;;;;4993769;28;20034;-81
2022/10/30 18:25:30;;;;;;;11.90;10.23;;;16.40;78.70;;;;;;4980289;28;20508;-85
2022/10/30 18:27:56;;;;;;;16.27;10.43;;;16.40;78.70;;;;;;4970932;28;20121;-78
2022/10/30 18:30:22;;;;;;;16.02;12.10;;;16.30;78.70;;;;;;4980337;28;20054;-84
2022/10/30 18:32:50;;;;;;;23.33;13.20;;;16.30;78.80;;;;;;4997737;28;20053;-83
2022/10/30 18:35:36;;;;;;;16.27;13.07;;;16.30;78.90;;;;;;4988334;28;20480;-83
2022/10/30 18:38:15;;;;;;;;;;;;;;;;;;;;;
2022/10/30 18:40:45;;;;;;;15.48;8.43;;;16.30;79.00;;;;;;4988489;28;20115;-87
2022/10/30 18:43:11;;;;;;;9.65;6.18;;;16.20;79.00;;;;;;4991779;28;20089;-80
2022/10/30 18:45:39;;;;;;;23.60;7.63;;;16.20;79.00;;;;;;4987675;28;20027;-82
2022/10/30 18:48:06;;;;;;;17.33;12.98;;;16.20;79.20;;;;;;4971909;28;20143;-81
2022/10/30 18:50:32;;;;;;;16.35;10.02;;;16.20;79.20;;;;;;4991859;28;20106;-80